Weather at S. Darius and S. Girėnas Airfield

Public forecast

Using degrees Celsius for public forecast. Weather courtesy of forecast.io.

Closest aviation weather report (METAR) to S. Darius and S. Girėnas Airfield

Closest report is Kaunas International Airport, 8.6 nm (16.0 km) NE.

2024/02/24 15:20 (retrieved 14 minutes ago)

EYKA 241520Z 20008KT 160V250 9999 BKN029 11/06 Q1004

Closest aviation forecast (TAF) to S. Darius and S. Girėnas Airfield

Closest forecast is Kaunas International Airport, 8.6 nm (16.0 km) NE.

2024/02/24 12:03 (retrieved 4 hours ago)

TAF TAF EYKA 241100Z 2412/2512 16012KT 9000 BKN040 TEMPO 2412/2414 18015G25KT 5000 SHRA SCT015 BKN030CB TEMPO 2414/2417 22015G25KT 5000 RA BKN010 OVC015 BECMG 2417/2419 24007KT SCT005 BKN010 BECMG 2422/2424 SCT035 TEMPO 2500/2506 1500 BR SCT005 BECMG 2509/2511 BKN015